Pierre, SD

6:09 PM CDT on July 07, 2015 (GMT -0500)
2 miles north of airport | | Change Station
CLOSE
Current Station
Personal Weather Station
Location: Pierre, SD
Elevation: 1818 ft
Nearby Weather Stations

Elev 1818 ft 44.41 °N, 100.30 °W | Updated 1 minute ago

Clear
Clear
74.0 °F
Feels Like 76 °F
N
7.0
Wind Variable Wind from SSE
Gusts 16.0 mph

Today
High -- | Low -- °F
--% Chance of Precip.
Yesterday
High -- | Low -- °F
Precip. -- in
6:03 AM 9:27 PM
Waning Gibbous, 60% visible
Pressure 30.03 in
Visibility 10.0 miles
Clouds Overcast 9000 ft
Heat Index 76 °F
Dew Point 64 °F
Humidity 70%
Rainfall 0.00 in
Snow Depth Not available.
UV 1 out of 12
Pollen 3.20 out of 12
Air Quality Not available.
Flu Activity Not available.
METAR KPIR 072253Z AUTO 13013KT 10SM OVC090 22/14 A3004 RMK AO2 SLP168 T02220139

More Conditions Fewer Conditions

Pressure 30.03 in
Visibility 10.0 miles
Clouds Overcast 9000 ft
Heat Index 76 °F
Dew Point 64 °F
Humidity 70%
Rainfall 0.00 in
Snow Depth Not available.
UV 1 out of 12
Pollen 3.20 out of 12
Air Quality Not available.
Flu Activity Not available.
METAR KPIR 072253Z AUTO 13013KT 10SM OVC090 22/14 A3004 RMK AO2 SLP168 T02220139

More Conditions Fewer Conditions

10-Day Weather Forecast

×

Almanac

Astronomy

Jul. 07, 2015 Rise Set
Actual Time
Civil Twilight
Nautical Twilight
Astronomical Twilight
Moon
Length of Visible Light
Length of Day
Tomorrow will be .
, % of the Moon is Illuminated

Today's Extremes

State Highs State Lows

Community

WunderPhotos

Upload Photos

1,835,951 photos uploaded!

WunderBlogs® & News

Nearby

Air Quality

  Air Quality AQ Index Pollutant
Not available.

Snow Depth

Station Depth Elevation

Earthquake Activity

City Distance Mag. Time & Date
Minimum magnitude displayed is 2.5.

Coastal Water Temperatures

Place Temperature

Stations

Nearby Weather Stations

Station Location Temp. Windchill Dew Point Humidity Wind Precip. Elev Updated Type